Scarborough, ME

5:31 AM EDT on September 02, 2014 (GMT -0400)
Sanford Regional | Change Station
CLOSE
Current Station
Airport
Location: Sanford,
Elevation: 243 ft
Nearby Weather Stations

Elev 243 ft 43.39 °N, 70.71 °W | Updated 16 minutes ago

Mostly Cloudy
Mostly Cloudy
63 °F
Feels Like 63 °F
N
4
Wind Variable Wind from NE

Today
High -- | Low -- °F
--% Chance of Precip.
Yesterday
High -- | Low -- °F
Precip. -- in
6:06 AM 7:15 PM
Waxing Crescent, 49% visible
Pressure 29.90 in
Visibility 5.0 miles
Clouds Mostly Cloudy 6500 ft
Dew Point 59 °F
Humidity 88%
Rainfall 0.00 in
Snow Depth Not available.
UV 0 out of 12
Pollen 5.70 out of 12
Ozone Good
PM2.5 Good
Flu Activity Not available.
METAR KSFM 020915Z AUTO 04003KT 5SM BKN065 17/15 A2990 RMK AO1

More Conditions Fewer Conditions

Pressure 29.90 in
Visibility 5.0 miles
Clouds Mostly Cloudy 6500 ft
Dew Point 59 °F
Humidity 88%
Rainfall 0.00 in
Snow Depth Not available.
UV 0 out of 12
Pollen 5.70 out of 12
Ozone Good
PM2.5 Good
Flu Activity Not available.
METAR KSFM 020915Z AUTO 04003KT 5SM BKN065 17/15 A2990 RMK AO1

More Conditions Fewer Conditions

10-Day Weather Forecast

Almanac

Astronomy

Sep. 02, 2014 Rise Set
Actual Time 6:06 AM EDT 7:15 PM EDT
Civil Twilight 5:37 AM EDT 7:44 PM EDT
Nautical Twilight 5:01 AM EDT 8:19 PM EDT
Astronomical Twilight 4:24 AM EDT 8:56 PM EDT
Moon 2:00 PM EDT 11:53 PM EDT
Length of Visible Light 14h 07m
Length of Day
13h 08m
Tomorrow will be 2m 53s shorter.
Waxing Crescent, 49% of the Moon is Illuminated
Today
Waxing Crescent
Sep 2
First Quarter
Sep 8
Full
Sep 15
Last Quarter
Sep 24
New

Today's Extremes

State Highs State Lows

Community

WunderPhotos

Upload Photos

1,749,587 photos uploaded!

WunderBlogs® & News

Nearby

Air Quality

  Air Quality AQ Index Pollutant
Yesterday Good
PM2.5
Yesterday Good
OZONE
Current Good
PM2.5
Current Good
OZONE
Tuesday Good
OZONE
Tuesday Good
PM2.5
Wednesday Good
OZONE
Wednesday Good
PM2.5

Snow Depth

Station Depth Elevation
No new snow has been reported.

Earthquake Activity

City Distance Mag. Time & Date
No recent earthquake activity has been reported nearby.
Minimum magnitude displayed is 2.5.

Coastal Water Temperatures

Place Temperature
Wells, ME 57.9 °F
Portland, ME 59.0 °F

Nearby Weather Stations